Time;durP1;ratioP1;P1;durP2;ratioP2;P2;SDS_P1;SDS_P2;PMS_P1;PMS_P2;Temp;Humidity;BMP_temperature;BMP_pressure;BME280_temperature;BME280_humidity;BME280_pressure;Samples;Min_cycle;Max_cycle;Signal;HPM_P1;HPM_P2
2023/01/21 00:02:04;;;;;;;8.52;6.03;;;;;;;6.14;100.00;99842.81;5033677;28;20037;-71
2023/01/21 00:04:29;;;;;;;9.32;7.13;;;;;;;5.66;100.00;99798.81;5033558;28;20543;-72
2023/01/21 00:06:55;;;;;;;9.45;7.32;;;;;;;6.45;100.00;99941.72;5066023;28;20026;-72
2023/01/21 00:09:21;;;;;;;11.73;9.48;;;;;;;6.11;100.00;99856.31;5033571;28;20048;-71
2023/01/21 00:11:46;;;;;;;13.23;8.57;;;;;;;5.74;100.00;99870.16;5033453;28;20483;-71
2023/01/21 00:14:12;;;;;;;12.05;8.77;;;;;;;5.48;100.00;99824.22;5033359;28;20132;-72
2023/01/21 00:16:37;;;;;;;10.65;7.95;;;;;;;5.38;100.00;99797.44;5033048;28;20120;-72
2023/01/21 00:19:02;;;;;;;10.85;7.72;;;;;;;5.87;100.00;99891.91;5033307;28;20041;-72
2023/01/21 00:21:28;;;;;;;10.55;8.10;;;;;;;5.55;100.00;99858.59;5032876;28;20029;-71
2023/01/21 00:23:53;;;;;;;12.55;9.52;;;;;;;5.75;100.00;99923.94;5032827;28;20514;-72
2023/01/21 00:26:18;;;;;;;11.93;9.25;;;;;;;5.86;100.00;99930.59;5032142;28;20068;-72
2023/01/21 00:28:45;;;;;;;13.48;9.02;;;;;;;5.88;100.00;99892.75;5033154;28;20026;-72
2023/01/21 00:31:11;;;;;;;16.25;10.20;;;;;;;5.11;100.00;99863.19;5031821;28;20037;-71
2023/01/21 00:33:37;;;;;;;12.50;9.68;;;;;;;5.64;100.00;99911.44;5031850;28;20416;-70
2023/01/21 00:36:06;;;;;;;14.18;10.40;;;;;;;5.78;100.00;99922.25;5033026;28;20056;-72
2023/01/21 00:38:32;;;;;;;13.32;9.65;;;;;;;5.12;100.00;99800.19;5031887;28;20029;-71
2023/01/21 00:41:10;;;;;;;12.55;9.27;;;;;;;5.72;100.00;99906.34;5031135;28;20032;-72
2023/01/21 00:43:36;;;;;;;9.77;7.85;;;;;;;5.28;100.00;99821.88;5041383;28;20025;-72
2023/01/21 00:46:01;;;;;;;9.68;7.65;;;;;;;5.13;100.00;99824.53;5050653;28;20079;-72
2023/01/21 00:48:27;;;;;;;10.65;8.15;;;;;;;5.65;100.00;99899.66;5053185;28;20041;-72
2023/01/21 00:50:54;;;;;;;11.35;8.25;;;;;;;5.74;100.00;99892.88;5051348;28;20036;-72
2023/01/21 00:53:21;;;;;;;11.27;8.20;;;;;;;5.69;100.00;99856.75;5053154;28;20029;-71
2023/01/21 00:55:47;;;;;;;10.98;7.90;;;;;;;5.86;100.00;99892.75;5052093;28;20044;-72
2023/01/21 00:58:12;;;;;;;9.80;8.20;;;;;;;6.02;100.00;99896.78;5045695;28;20030;-72
2023/01/21 01:00:37;;;;;;;11.32;8.82;;;;;;;5.31;100.00;99795.81;5031006;28;20025;-72
2023/01/21 01:03:03;;;;;;;10.82;8.57;;;;;;;5.45;100.00;99824.22;5031067;28;20550;-72
2023/01/21 01:05:28;;;;;;;14.43;10.27;;;;;;;6.21;100.00;99904.16;5030569;28;20128;-72
2023/01/21 01:07:54;;;;;;;27.85;17.58;;;;;;;5.47;100.00;99825.03;5030773;28;20029;-71
2023/01/21 01:10:19;;;;;;;18.58;13.77;;;;;;;5.57;100.00;99883.78;5030549;28;20076;-72
2023/01/21 01:12:45;;;;;;;15.43;10.18;;;;;;;5.35;100.00;99832.72;5031330;28;20037;-71
2023/01/21 01:15:10;;;;;;;17.92;12.90;;;;;;;5.70;100.00;99903.00;5030919;28;20528;-71
2023/01/21 01:17:35;;;;;;;18.88;13.15;;;;;;;5.43;100.00;99840.25;5032018;28;20031;-71
2023/01/21 01:20:01;;;;;;;14.43;9.45;;;;;;;5.01;100.00;99910.25;5030473;28;20032;-72
2023/01/21 01:22:28;;;;;;;18.23;11.05;;;;;;;5.11;100.00;99908.53;5032171;28;20041;-72
2023/01/21 01:24:53;;;;;;;12.85;7.80;;;;;;;4.90;100.00;99894.41;5031910;28;20030;-72
2023/01/21 01:27:19;;;;;;;10.77;7.35;;;;;;;4.71;100.00;99824.03;5030542;28;20491;-71
2023/01/21 01:29:44;;;;;;;9.27;6.53;;;;;;;5.32;100.00;99900.81;5031832;28;20558;-71
2023/01/21 01:32:10;;;;;;;8.65;7.13;;;;;;;5.10;100.00;99906.84;5031379;28;20033;-70
2023/01/21 01:34:36;;;;;;;8.38;6.40;;;;;;;5.18;100.00;99913.53;5031506;28;20083;-70
2023/01/21 01:37:02;;;;;;;9.00;7.03;;;;;;;4.81;100.00;99849.16;5031444;28;20029;-71
2023/01/21 01:39:28;;;;;;;9.18;6.70;;;;;;;4.79;100.00;99834.91;5031339;28;20451;-71
2023/01/21 01:41:53;;;;;;;7.78;5.85;;;;;;;5.21;100.00;99910.97;5031455;28;20033;-70
2023/01/21 01:44:56;;;;;;;8.52;6.72;;;;;;;4.82;100.00;99902.84;5030260;28;20030;-71
2023/01/21 01:47:28;;;;;;;8.32;6.00;;;;;;;4.62;100.00;99826.59;5031498;28;20491;-71
2023/01/21 01:49:54;;;;;;;10.38;6.82;;;;;;;4.75;100.00;99845.84;5031367;28;20040;-72
2023/01/21 01:52:21;;;;;;;10.80;7.05;;;;;;;5.33;100.00;99911.75;5031753;28;20037;-71
2023/01/21 01:54:51;;;;;;;9.45;6.93;;;;;;;4.80;100.00;99871.81;5031659;28;20403;-72
2023/01/21 01:57:21;;;;;;;10.03;7.47;;;;;;;5.29;100.00;99916.78;5030132;28;20123;-71
2023/01/21 01:59:48;;;;;;;11.63;8.88;;;;;;;4.62;100.00;99839.19;5030106;28;20681;-71
2023/01/21 02:02:18;;;;;;;19.45;14.52;;;;;;;4.72;100.00;99901.22;5031269;28;20072;-72
2023/01/21 02:04:51;;;;;;;20.85;18.10;;;;;;;4.46;100.00;99846.00;5031706;28;20091;-72
2023/01/21 02:07:20;;;;;;;16.60;13.05;;;;;;;4.90;100.00;99901.13;5031396;28;20033;-72
2023/01/21 02:09:46;;;;;;;16.17;13.88;;;;;;;4.53;100.00;99837.59;5031332;28;20791;-72
2023/01/21 02:12:11;;;;;;;17.95;13.32;;;;;;;4.38;100.00;99825.06;5031217;28;20060;-73
2023/01/21 02:14:41;;;;;;;16.63;13.20;;;;;;;4.71;100.00;99909.63;5030049;28;20029;-72
2023/01/21 02:17:44;;;;;;;18.15;12.70;;;;;;;4.76;100.00;99907.91;5030859;28;20435;-71
2023/01/21 02:20:18;;;;;;;18.27;12.15;;;;;;;4.69;100.00;99924.75;5030840;28;20142;-71
2023/01/21 02:23:18;;;;;;;17.40;11.10;;;;;;;4.57;100.00;99931.53;5031008;28;20025;-71
2023/01/21 02:25:50;;;;;;;13.63;9.85;;;;;;;4.57;100.00;99937.41;5026711;28;20482;-71
2023/01/21 02:28:59;;;;;;;11.32;8.65;;;;;;;4.58;100.00;99933.19;5029856;28;20496;-70
2023/01/21 02:31:46;;;;;;;11.55;8.32;;;;;;;3.96;100.00;99858.00;5030785;28;20072;-71
2023/01/21 02:34:15;;;;;;;11.43;7.53;;;;;;;4.44;100.00;99939.97;5030649;28;20052;-70
2023/01/21 02:36:52;;;;;;;9.93;7.13;;;;;;;4.46;100.00;99949.19;5030957;28;20033;-70
2023/01/21 02:39:32;;;;;;;10.15;6.75;;;;;;;4.10;100.00;99927.50;5030716;28;20411;-72
2023/01/21 02:42:25;;;;;;;9.45;7.15;;;;;;;4.05;100.00;99926.69;5030517;28;20029;-72
2023/01/21 02:45:12;;;;;;;8.05;6.30;;;;;;;3.98;100.00;99934.25;5040695;28;20059;-71
2023/01/21 02:48:10;;;;;;;8.80;5.95;;;;;;;3.99;100.00;99920.81;5050850;28;20039;-71
2023/01/21 02:50:43;;;;;;;9.90;5.70;;;;;;;4.03;100.00;99909.91;5033475;28;20036;-72
2023/01/21 02:53:38;;;;;;;7.07;5.45;;;;;;;4.32;100.00;99913.16;5050633;28;20060;-72
2023/01/21 02:56:23;;;;;;;10.05;6.07;;;;;;;3.84;100.00;99858.88;5041666;28;20051;-71
2023/01/21 02:59:07;;;;;;;8.90;6.15;;;;;;;4.08;100.00;99913.28;5049022;28;20036;-72
2023/01/21 03:02:07;;;;;;;8.48;5.90;;;;;;;3.83;100.00;99887.34;5049322;28;20036;-71
2023/01/21 03:05:03;;;;;;;10.25;7.20;;;;;;;3.92;100.00;99907.44;5050163;28;20427;-70
2023/01/21 03:07:34;;;;;;;9.15;6.60;;;;;;;3.61;100.00;99854.72;5051022;28;20025;-71
2023/01/21 03:10:08;;;;;;;10.23;7.07;;;;;;;3.41;100.00;99830.47;5050025;28;20028;-71
2023/01/21 03:12:56;;;;;;;13.75;7.82;;;;;;;3.95;100.00;99914.13;5049132;28;20032;-71
2023/01/21 03:18:30;;;;;;;10.20;7.35;;;;;;;4.22;100.00;99914.03;5051008;28;20067;-71
2023/01/21 03:21:02;;;;;;;11.70;8.02;;;;;;;4.15;100.00;99903.19;5048982;28;20045;-72
2023/01/21 03:23:32;;;;;;;10.88;8.05;;;;;;;4.47;100.00;99912.28;5049690;28;20079;-73
2023/01/21 03:25:59;;;;;;;12.40;8.48;;;;;;;4.42;100.00;99914.81;5049580;28;20072;-73
2023/01/21 03:28:29;;;;;;;11.90;8.30;;;;;;;4.38;100.00;99915.66;5050731;28;20056;-72
2023/01/21 03:31:09;;;;;;;11.77;8.05;;;;;;;3.53;100.00;99781.88;5053358;28;20481;-72
2023/01/21 03:33:39;;;;;;;13.85;8.57;;;;;;;4.19;100.00;99887.25;5054135;28;20114;-72
2023/01/21 03:36:30;;;;;;;12.32;8.75;;;;;;;4.11;100.00;99886.44;5052757;28;20124;-72
2023/01/21 03:38:58;;;;;;;10.88;7.93;;;;;;;4.16;100.00;99883.91;5053634;28;20053;-72
2023/01/21 03:41:30;;;;;;;11.88;8.85;;;;;;;3.61;100.00;99812.00;5054521;28;20152;-72
2023/01/21 03:43:57;;;;;;;14.02;9.18;;;;;;;4.08;100.00;99880.59;5054197;28;20064;-72
2023/01/21 03:46:28;;;;;;;13.32;9.25;;;;;;;4.25;100.00;99888.88;5053597;28;20040;-72
2023/01/21 03:49:05;;;;;;;11.95;8.70;;;;;;;3.75;100.00;99816.16;5053744;28;20406;-71
2023/01/21 03:51:39;;;;;;;11.45;8.60;;;;;;;3.86;100.00;99884.00;5053167;28;20029;-71
2023/01/21 03:54:05;;;;;;;18.08;10.73;;;;;;;3.96;100.00;99891.50;5054087;28;20059;-70
2023/01/21 03:56:30;;;;;;;10.90;7.63;;;;;;;3.30;100.00;99806.22;5052353;28;20037;-71
2023/01/21 03:58:55;;;;;;;10.82;7.13;;;;;;;3.99;100.00;99900.72;5053600;28;20491;-71
2023/01/21 04:01:21;;;;;;;11.00;7.72;;;;;;;3.65;100.00;99884.03;5051955;28;20083;-71
2023/01/21 04:03:47;;;;;;;12.35;8.55;;;;;;;3.65;100.00;99894.94;5052417;28;20048;-72
2023/01/21 04:06:17;;;;;;;12.57;9.38;;;;;;;3.63;100.00;99888.22;5053604;28;20037;-73
2023/01/21 04:08:43;;;;;;;12.73;9.13;;;;;;;3.32;100.00;99802.03;5052523;28;20036;-73
2023/01/21 04:11:09;;;;;;;12.63;9.13;;;;;;;3.80;100.00;99877.31;5052574;28;20431;-73
2023/01/21 04:13:34;;;;;;;14.60;9.30;;;;;;;3.83;100.00;99829.53;5052806;28;20057;-73
2023/01/21 04:15:59;;;;;;;12.93;9.40;;;;;;;4.18;100.00;99862.09;5053773;28;20025;-72
2023/01/21 04:18:25;;;;;;;13.48;9.23;;;;;;;3.72;100.00;99796.06;5053014;28;20091;-72
2023/01/21 04:20:50;;;;;;;13.13;8.80;;;;;;;4.16;100.00;99866.31;5051982;28;20028;-73
2023/01/21 04:23:16;;;;;;;13.52;8.77;;;;;;;4.16;100.00;99853.72;5052041;28;20029;-70
2023/01/21 04:25:41;;;;;;;14.63;8.55;;;;;;;3.83;100.00;99798.53;5052949;28;20033;-73
2023/01/21 04:28:07;;;;;;;13.25;9.02;;;;;;;3.91;100.00;99858.00;5053421;28;20052;-72
2023/01/21 04:30:32;;;;;;;13.90;9.48;;;;;;;4.07;100.00;99866.31;5052409;28;20044;-72
2023/01/21 04:32:57;;;;;;;15.18;9.68;;;;;;;3.92;100.00;99806.03;5053569;28;20480;-73
2023/01/21 04:35:23;;;;;;;16.63;11.80;;;;;;;3.89;100.00;99806.88;5052224;28;20353;-72
2023/01/21 04:37:48;;;;;;;17.15;11.68;;;;;;;4.25;100.00;99859.53;5053008;28;20033;-72
2023/01/21 04:40:14;;;;;;;16.63;11.55;;;;;;;4.03;100.00;99850.41;5053107;28;20029;-72
2023/01/21 04:42:41;;;;;;;17.45;10.75;;;;;;;4.05;100.00;99855.44;5052274;28;20024;-72
2023/01/21 04:45:07;;;;;;;14.38;10.27;;;;;;;4.03;100.00;99862.16;5053145;28;20110;-72
2023/01/21 04:47:32;;;;;;;13.82;10.13;;;;;;;4.01;100.00;99831.13;5051790;28;20029;-73
2023/01/21 04:49:58;;;;;;;15.98;9.88;;;;;;;3.65;100.00;99784.34;5052950;28;20037;-72
2023/01/21 04:52:23;;;;;;;15.32;10.60;;;;;;;4.11;100.00;99853.75;5051495;28;20043;-72
2023/01/21 04:54:49;;;;;;;17.00;11.50;;;;;;;3.85;100.00;99800.19;5084632;28;20102;-73
2023/01/21 04:57:14;;;;;;;16.60;12.05;;;;;;;4.02;100.00;99871.34;5051059;28;20025;-72
2023/01/21 04:59:39;;;;;;;17.35;12.05;;;;;;;4.08;100.00;99837.84;5051312;28;20037;-72
2023/01/21 05:02:05;;;;;;;17.60;11.55;;;;;;;4.19;100.00;99867.13;5052535;28;20114;-73
2023/01/21 05:04:31;;;;;;;17.38;11.27;;;;;;;4.09;100.00;99854.56;5051915;28;20045;-73
2023/01/21 05:06:57;;;;;;;18.38;11.75;;;;;;;4.07;100.00;99876.38;5051616;28;20102;-73
2023/01/21 05:09:22;;;;;;;28.33;18.08;;;;;;;3.35;100.00;99817.09;5051570;28;20036;-73
2023/01/21 05:11:48;;;;;;;29.08;22.38;;;;;;;3.02;100.00;99721.72;5052294;28;20090;-73
2023/01/21 05:14:13;;;;;;;33.38;25.35;;;;;;;3.63;100.00;99805.28;5042176;28;20075;-72
2023/01/21 05:16:39;;;;;;;22.50;16.08;;;;;;;3.46;100.00;99805.34;5032330;28;20112;-73
2023/01/21 05:19:04;;;;;;;29.40;20.92;;;;;;;3.50;100.00;99834.66;5031310;28;20037;-73
2023/01/21 05:21:30;;;;;;;26.52;15.98;;;;;;;3.96;100.00;99878.91;5031165;28;20025;-73
2023/01/21 05:23:56;;;;;;;24.55;13.60;;;;;;;3.86;100.00;99824.50;5030877;28;20021;-72
2023/01/21 05:26:21;;;;;;;22.35;13.43;;;;;;;4.38;100.00;99886.31;5032636;28;20029;-73
2023/01/21 05:28:47;;;;;;;26.90;14.27;;;;;;;4.30;100.00;99883.00;5032281;28;20037;-72
2023/01/21 05:31:13;;;;;;;26.00;14.38;;;;;;;4.48;100.00;99889.59;5032136;28;20107;-71
2023/01/21 05:33:38;;;;;;;23.77;13.70;;;;;;;4.47;100.00;99913.13;5031726;28;20544;-72
2023/01/21 05:36:04;;;;;;;22.65;12.63;;;;;;;4.26;100.00;99850.28;5031880;28;20052;-72
2023/01/21 05:38:29;;;;;;;22.10;13.10;;;;;;;4.66;100.00;99929.78;5032620;28;20038;-73
2023/01/21 05:40:59;;;;;;;20.13;12.10;;;;;;;4.21;100.00;99867.09;5030328;28;20033;-72
2023/01/21 05:43:25;;;;;;;19.15;12.35;;;;;;;4.64;100.00;99938.19;5031131;28;20045;-72
2023/01/21 05:45:51;;;;;;;19.92;12.60;;;;;;;4.11;100.00;99923.31;5031998;28;20117;-73
2023/01/21 05:48:16;;;;;;;19.55;12.52;;;;;;;4.04;100.00;99950.16;5031914;28;20060;-72
2023/01/21 05:50:42;;;;;;;23.27;15.13;;;;;;;3.66;100.00;99890.75;5031775;28;20034;-72
2023/01/21 05:53:07;;;;;;;18.77;12.43;;;;;;;3.75;100.00;99878.16;5030296;28;20037;-73
2023/01/21 05:55:33;;;;;;;20.05;12.20;;;;;;;3.72;100.00;99888.22;5030265;28;20488;-73
2023/01/21 05:57:58;;;;;;;19.10;12.07;;;;;;;3.33;100.00;99834.69;5050506;28;20120;-73
2023/01/21 06:00:23;;;;;;;20.40;12.48;;;;;;;3.63;100.00;99905.81;5050469;28;20029;-73
2023/01/21 06:02:49;;;;;;;17.60;11.02;;;;;;;4.21;100.00;99980.31;5051520;28;20029;-72
2023/01/21 06:05:14;;;;;;;17.48;11.27;;;;;;;4.04;100.00;99977.00;5051801;28;20057;-73
2023/01/21 06:07:40;;;;;;;20.42;11.82;;;;;;;4.02;100.00;99966.09;5050379;28;20029;-72
2023/01/21 06:10:06;;;;;;;20.45;11.90;;;;;;;4.19;100.00;99977.78;5050139;28;20033;-73
2023/01/21 06:12:31;;;;;;;16.17;10.65;;;;;;;4.11;100.00;99910.75;5051115;28;20044;-72
2023/01/21 06:14:59;;;;;;;18.90;13.32;;;;;;;4.67;100.00;99978.47;5050466;28;20033;-72
2023/01/21 06:17:25;;;;;;;17.27;9.55;;;;;;;8.13;100.00;99972.84;5050352;28;20028;-71
2023/01/21 06:19:50;;;;;;;20.92;12.57;;;;;;;5.16;100.00;99937.88;5049895;28;20037;-71
2023/01/21 06:22:17;;;;;;;17.70;11.88;;;;;;;5.19;100.00;99864.78;5046972;28;20025;-70
2023/01/21 06:24:43;;;;;;;18.52;12.55;;;;;;;5.72;100.00;99994.59;5042640;28;20415;-70
2023/01/21 06:27:08;;;;;;;18.25;12.00;;;;;;;6.77;100.00;99932.06;5042632;28;20098;-70
2023/01/21 06:29:33;;;;;;;17.40;11.73;;;;;;;7.29;100.00;99940.53;5048864;28;20574;-70
2023/01/21 06:31:59;;;;;;;18.58;12.18;;;;;;;6.57;100.00;99927.28;5041209;28;20430;-70
2023/01/21 06:34:24;;;;;;;16.02;11.50;;;;;;;6.08;100.00;99954.75;5049092;28;20068;-70
2023/01/21 06:36:50;;;;;;;16.05;11.38;;;;;;;6.11;100.00;99888.28;5048333;28;20036;-69
2023/01/21 06:39:15;;;;;;;16.50;11.27;;;;;;;6.33;100.00;99952.81;5050263;28;20025;-69
2023/01/21 06:41:40;;;;;;;18.10;11.55;;;;;;;7.29;100.00;100020.63;5048609;28;20041;-70
2023/01/21 06:44:06;;;;;;;20.00;12.77;;;;;;;6.88;100.00;99958.00;5049616;28;20040;-70
2023/01/21 06:46:32;;;;;;;18.70;13.13;;;;;;;7.50;100.00;100035.47;5048639;28;20032;-70
2023/01/21 06:48:58;;;;;;;18.42;12.80;;;;;;;7.79;100.00;99973.44;5049040;28;20055;-71
2023/01/21 06:51:23;;;;;;;18.77;13.38;;;;;;;7.82;100.00;99958.19;5050054;28;20033;-72
2023/01/21 06:53:49;;;;;;;22.92;16.70;;;;;;;9.51;100.00;99986.84;5048149;28;20604;-72
2023/01/21 06:56:14;;;;;;;22.30;16.98;;;;;;;9.86;100.00;99920.00;5046191;28;20025;-71
2023/01/21 06:58:40;;;;;;;19.70;15.57;;;;;;;10.56;100.00;100013.78;5029220;28;20141;-72
2023/01/21 07:01:05;;;;;;;17.92;12.00;;;;;;;9.45;100.00;100015.75;5028774;28;20033;-72
2023/01/21 07:03:31;;;;;;;17.02;12.45;;;;;;;9.35;100.00;99995.66;5030224;28;20486;-72
2023/01/21 07:05:56;;;;;;;16.92;12.45;;;;;;;11.56;100.00;99960.75;5045839;28;20047;-72
2023/01/21 07:08:21;;;;;;;19.65;13.43;;;;;;;11.17;100.00;100015.44;5054864;28;20024;-70
2023/01/21 07:10:47;;;;;;;19.42;13.85;;;;;;;11.28;100.00;100015.94;5054495;28;20415;-70
2023/01/21 07:13:12;;;;;;;16.13;11.10;;;;;;;10.15;100.00;100019.13;5052301;28;20045;-70
2023/01/21 07:15:38;;;;;;;17.38;12.10;;;;;;;10.34;100.00;99965.25;5054097;28;20028;-70
2023/01/21 07:18:03;;;;;;;15.90;11.98;;;;;;;11.92;100.00;100030.88;5053756;28;20029;-70
2023/01/21 07:20:29;;;;;;;21.88;15.13;;;;;;;11.21;100.00;99950.84;5053733;28;20076;-71
2023/01/21 07:22:54;;;;;;;21.20;14.55;;;;;;;12.22;100.00;99954.31;5053587;28;20064;-71
2023/01/21 07:25:20;;;;;;;20.73;13.27;;;;;;;7.63;100.00;99978.78;5053515;28;20036;-69
2023/01/21 07:27:45;;;;;;;18.60;12.27;;;;;;;7.19;100.00;100055.28;5053739;28;20044;-70
2023/01/21 07:30:19;;;;;;;17.23;12.52;;;;;;;7.00;100.00;100031.97;5051690;28;20381;-70
2023/01/21 07:32:47;;;;;;;16.13;12.00;;;;;;;7.21;100.00;100052.75;5053659;28;20033;-70
2023/01/21 07:35:13;;;;;;;19.10;13.15;;;;;;;7.17;100.00;99981.16;5053363;28;20564;-70
2023/01/21 07:37:39;;;;;;;20.73;12.98;;;;;;;6.91;100.00;100004.25;5032059;28;20037;-69
2023/01/21 07:40:05;;;;;;;19.17;12.85;;;;;;;7.34;100.00;100066.91;5033153;28;20132;-70
2023/01/21 07:42:31;;;;;;;17.17;11.95;;;;;;;7.23;100.00;100049.34;5049786;28;20499;-67
2023/01/21 07:44:58;;;;;;;20.67;10.02;;;;;;;6.59;100.00;99928.09;5051494;28;20031;-70
2023/01/21 07:47:24;;;;;;;21.38;11.55;;;;;;;7.30;100.00;99986.88;5041262;28;20032;-71
2023/01/21 07:49:49;;;;;;;16.40;9.27;;;;;;;7.02;100.00;99996.56;5033725;28;20406;-72
2023/01/21 07:52:15;;;;;;;13.20;8.88;;;;;;;7.29;100.00;100045.91;5033564;28;20036;-69
2023/01/21 07:54:40;;;;;;;15.25;9.23;;;;;;;7.30;100.00;99990.25;5031741;28;20037;-69
2023/01/21 07:57:05;;;;;;;13.70;8.10;;;;;;;7.22;100.00;99988.69;5033165;28;20033;-72
2023/01/21 07:59:32;;;;;;;14.27;8.30;;;;;;;8.12;100.00;100053.03;5033480;28;20553;-70
2023/01/21 08:01:57;;;;;;;14.43;7.80;;;;;;;8.77;100.00;100045.09;5031670;28;20060;-70
2023/01/21 08:04:24;;;;;;;11.70;6.03;;;;;;;8.34;100.00;100054.34;5032779;28;20519;-72
2023/01/21 08:06:51;;;;;;;12.55;5.68;;;;;;;8.29;100.00;100063.75;5035760;28;20039;-71
2023/01/21 08:09:17;;;;;;;12.73;5.70;;;;;;;8.21;100.00;100032.63;5051672;28;20044;-71
2023/01/21 08:11:43;;;;;;;12.80;5.43;;;;;;;8.32;100.00;100033.28;5051451;28;20037;-72
2023/01/21 08:14:08;;;;;;;9.63;4.75;;;;;;;7.88;100.00;99957.28;5050876;28;20062;-72
2023/01/21 08:16:34;;;;;;;10.80;5.50;;;;;;;8.66;100.00;100031.81;5052518;28;20033;-69
2023/01/21 08:18:59;;;;;;;11.85;6.05;;;;;;;8.86;100.00;100022.97;5052790;28;20036;-71
2023/01/21 08:21:25;;;;;;;12.43;6.40;;;;;;;8.93;100.00;100068.47;5051642;28;20044;-69
2023/01/21 08:23:50;;;;;;;11.75;6.30;;;;;;;7.89;100.00;99941.22;5051931;28;20503;-70
2023/01/21 08:26:15;;;;;;;17.10;6.78;;;;;;;8.65;100.00;100063.09;5051601;28;20029;-70
2023/01/21 08:28:41;;;;;;;11.27;6.00;;;;;;;8.00;100.00;99977.31;5052785;28;20037;-71
2023/01/21 08:31:10;;;;;;;12.05;6.95;;;;;;;8.70;100.00;100075.66;5053398;28;20100;-72
2023/01/21 08:33:36;;;;;;;13.05;7.38;;;;;;;8.00;100.00;100010.22;5051905;28;20032;-72
2023/01/21 08:36:05;;;;;;;14.68;8.02;;;;;;;8.20;100.00;99992.97;5052496;28;20396;-73
2023/01/21 08:38:31;;;;;;;17.23;8.35;;;;;;;8.47;100.00;100027.13;5053059;28;20031;-71
2023/01/21 08:40:57;;;;;;;15.68;8.88;;;;;;;8.69;100.00;100031.72;5052791;28;20098;-72
2023/01/21 08:43:23;;;;;;;14.68;7.28;;;;;;;8.61;100.00;100005.72;5052336;28;20028;-72
2023/01/21 08:45:49;;;;;;;10.35;6.10;;;;;;;9.02;100.00;100080.94;5052145;28;20521;-70
2023/01/21 08:48:14;;;;;;;11.05;6.10;;;;;;;9.40;100.00;100075.91;5050530;28;20119;-71
2023/01/21 08:50:40;;;;;;;11.65;5.55;;;;;;;9.39;100.00;100064.06;5051226;28;20029;-72
2023/01/21 08:53:05;;;;;;;9.95;5.65;;;;;;;9.34;100.00;100016.84;5050926;28;20127;-72
2023/01/21 08:55:31;;;;;;;13.70;5.57;;;;;;;9.83;100.00;100085.91;5051904;28;20036;-73
2023/01/21 08:57:57;;;;;;;15.02;5.00;;;;;;;9.09;100.00;99957.41;5052568;28;20064;-72
2023/01/21 09:00:24;;;;;;;9.27;4.43;;;;;;;9.98;100.00;100077.13;5051252;28;20033;-72
2023/01/21 09:02:52;;;;;;;11.45;4.03;;;;;;;9.62;100.00;100005.22;5052263;28;20465;-72
2023/01/21 09:05:19;;;;;;;10.55;3.58;;;;;;;9.82;100.00;100050.41;5051799;28;20092;-72
2023/01/21 09:07:45;;;;;;;14.20;3.92;;;;;;;10.23;100.00;100068.88;5052359;28;20029;-72
2023/01/21 09:10:11;;;;;;;9.10;3.70;;;;;;;9.77;100.00;99988.75;5049910;28;20377;-71
2023/01/21 09:12:39;;;;;;;13.23;4.13;;;;;;;10.42;100.00;100070.06;5034644;28;20432;-71
2023/01/21 09:15:05;;;;;;;13.65;4.55;;;;;;;10.15;100.00;100016.59;5030654;28;20081;-73
2023/01/21 09:17:30;;;;;;;7.15;4.03;;;;;;;10.59;100.00;100059.47;5031943;28;20495;-72
2023/01/21 09:19:56;;;;;;;10.63;4.18;;;;;;;10.11;100.00;99987.06;5031211;28;20393;-73
2023/01/21 09:22:21;;;;;;;15.43;4.00;;;;;;;10.27;100.00;99996.81;5039188;28;20037;-71
2023/01/21 09:24:46;;;;;;;8.13;3.55;;;;;;;10.21;100.00;99985.97;5046863;28;20025;-71
2023/01/21 09:27:12;;;;;;;8.85;4.75;;;;;;;10.32;100.00;99973.78;5051551;28;20041;-72
2023/01/21 09:29:37;;;;;;;14.15;4.38;;;;;;;10.68;100.00;100046.50;5049813;28;20577;-70
2023/01/21 09:32:04;;;;;;;17.05;4.82;;;;;;;10.45;100.00;99988.69;5050020;28;20025;-71
2023/01/21 09:34:30;;;;;;;8.55;4.20;;;;;;;10.02;100.00;99921.25;5051405;28;20479;-70
2023/01/21 09:36:56;;;;;;;9.85;4.28;;;;;;;10.89;100.00;100034.91;5050761;28;20037;-70
2023/01/21 09:39:21;;;;;;;11.57;5.00;;;;;;;10.92;100.00;100025.47;5051528;28;20086;-69
2023/01/21 09:41:55;;;;;;;14.10;5.43;;;;;;;10.41;100.00;99908.31;5050814;28;20032;-70
2023/01/21 09:44:24;;;;;;;13.40;4.47;;;;;;;11.11;100.00;100031.69;5049879;28;20518;-69
2023/01/21 09:47:05;;;;;;;11.23;4.80;;;;;;;11.03;100.00;100045.53;5050844;28;20059;-71
2023/01/21 09:49:51;;;;;;;13.00;4.47;;;;;;;11.02;100.00;100033.69;5050538;28;20032;-69
2023/01/21 09:52:37;;;;;;;12.88;4.53;;;;;;;10.85;100.00;100039.25;5051250;28;20136;-70
2023/01/21 09:55:09;;;;;;;13.98;5.20;;;;;;;10.65;100.00;100015.25;5051275;28;20069;-70
2023/01/21 09:57:50;;;;;;;11.48;4.80;;;;;;;10.57;100.00;100035.81;5049947;28;20123;-72
2023/01/21 10:00:40;;;;;;;9.65;4.53;;;;;;;10.75;100.00;100029.38;5048955;28;20064;-70
2023/01/21 10:03:15;;;;;;;11.95;4.55;;;;;;;10.79;100.00;100036.91;5050300;28;20103;-70
2023/01/21 10:05:58;;;;;;;12.85;4.13;;;;;;;10.75;100.00;100034.47;5049788;28;20110;-69
2023/01/21 10:08:32;;;;;;;11.15;4.30;;;;;;;10.77;100.00;100032.72;5049788;28;20029;-69
2023/01/21 10:11:10;;;;;;;12.55;5.22;;;;;;;10.76;100.00;100028.50;5050808;28;20042;-71
2023/01/21 10:14:01;;;;;;;14.52;5.60;;;;;;;10.53;100.00;100020.69;5049844;28;20349;-70
2023/01/21 10:16:43;;;;;;;18.75;7.18;;;;;;;10.54;100.00;100023.16;5030855;28;20511;-71
2023/01/21 10:19:16;;;;;;;13.73;6.55;;;;;;;10.51;100.00;100033.44;5030567;28;20561;-71
2023/01/21 10:21:47;;;;;;;14.38;6.65;;;;;;;10.45;100.00;100006.47;5031508;28;20104;-72
2023/01/21 10:24:48;;;;;;;14.75;6.57;;;;;;;10.54;100.00;100014.72;5031345;28;20428;-73
2023/01/21 10:27:19;;;;;;;13.75;5.47;;;;;;;10.38;100.00;99960.91;5031906;28;20029;-75
2023/01/21 10:29:48;;;;;;;14.30;5.47;;;;;;;10.56;100.00;100015.53;5031485;28;20029;-73
2023/01/21 10:32:23;;;;;;;12.35;4.63;;;;;;;10.66;100.00;100016.91;5030943;28;20040;-73
2023/01/21 10:34:54;;;;;;;13.82;5.03;;;;;;;10.34;100.00;99960.19;5029910;28;20492;-73
2023/01/21 10:37:33;;;;;;;17.83;6.33;;;;;;;10.32;100.00;99950.91;5031178;28;20034;-73
2023/01/21 10:40:16;;;;;;;15.13;6.60;;;;;;;10.57;100.00;100001.94;5030263;28;20040;-70
2023/01/21 10:43:17;;;;;;;18.73;6.38;;;;;;;10.87;100.00;100014.63;5030844;28;20041;-71
2023/01/21 10:46:01;;;;;;;11.18;5.68;;;;;;;10.99;100.00;100023.59;5012372;28;20042;-72
2023/01/21 10:48:40;;;;;;;14.77;5.65;;;;;;;10.89;100.00;99969.63;5030996;28;20033;-71
2023/01/21 10:51:20;;;;;;;17.02;5.53;;;;;;;11.06;100.00;100017.44;5031327;28;20021;-73
2023/01/21 10:53:49;;;;;;;16.05;5.53;;;;;;;11.27;100.00;100015.09;5031563;28;20416;-73
2023/01/21 10:56:20;;;;;;;13.77;4.95;;;;;;;11.31;100.00;100018.38;5048946;28;20837;-74
2023/01/21 10:58:57;;;;;;;14.48;5.07;;;;;;;11.08;100.00;99960.56;5050952;28;20037;-74
2023/01/21 11:01:28;;;;;;;15.73;4.82;;;;;;;10.96;100.00;99921.94;5050955;28;20037;-74
2023/01/21 11:03:58;;;;;;;10.90;4.20;;;;;;;11.15;100.00;99951.03;4379311;28;10000819;-74
2023/01/21 11:06:24;;;;;;;11.15;4.00;;;;;;;11.52;100.00;100006.72;5107725;28;20096;-74
2023/01/21 11:08:55;;;;;;;15.60;4.72;;;;;;;11.46;100.00;99996.72;5108155;28;20048;-73
2023/01/21 11:11:30;;;;;;;12.38;3.95;;;;;;;11.48;100.00;99988.16;5108279;28;20047;-72
2023/01/21 11:13:55;;;;;;;13.10;4.15;;;;;;;11.59;100.00;100016.66;5107315;28;20035;-73
2023/01/21 11:16:50;;;;;;;13.73;3.80;;;;;;;11.56;100.00;100004.03;5107987;28;20039;-73
2023/01/21 11:19:20;;;;;;;14.38;3.95;;;;;;;11.66;100.00;100007.16;5095614;28;20044;-74
2023/01/21 11:22:18;;;;;;;14.93;5.05;;;;;;;11.61;100.00;99981.78;5091570;28;20058;-73
2023/01/21 11:24:46;;;;;;;14.55;4.78;;;;;;;11.52;100.00;99965.97;5090528;28;20040;-72
2023/01/21 11:27:31;;;;;;;18.77;6.65;;;;;;;11.70;100.00;99986.63;5107901;28;20847;-71
2023/01/21 11:29:57;;;;;;;17.00;7.13;;;;;;;11.30;100.00;99920.84;5090366;28;20228;-71
2023/01/21 11:32:33;;;;;;;25.60;11.38;;;;;;;11.70;100.00;99991.72;5090449;28;20029;-70
2023/01/21 11:35:07;;;;;;;22.92;8.90;;;;;;;11.62;100.00;99980.91;5084774;28;20042;-70